createdAt,value
2023-03-05T00:01:33.320Z,26.73
2023-03-05T00:04:05.423Z,27.90
2023-03-05T00:06:34.405Z,26.93
2023-03-05T00:09:03.562Z,26.87
2023-03-05T00:11:33.434Z,26.93
2023-03-05T00:14:04.107Z,26.77
2023-03-05T00:16:32.933Z,27.70
2023-03-05T00:19:02.998Z,28.00
2023-03-05T00:21:33.726Z,26.47
2023-03-05T00:24:03.220Z,27.17
2023-03-05T00:26:34.408Z,25.97
2023-03-05T00:29:02.855Z,26.53
2023-03-05T00:31:33.950Z,26.87
2023-03-05T00:34:05.706Z,27.13
2023-03-05T00:36:34.502Z,27.37
2023-03-05T00:39:03.208Z,29.27
2023-03-05T00:41:31.570Z,27.90
2023-03-05T00:44:00.012Z,28.63
2023-03-05T00:46:29.019Z,28.47
2023-03-05T00:48:58.221Z,27.47
2023-03-05T00:51:28.585Z,27.70
2023-03-05T00:53:56.968Z,28.03
2023-03-05T00:56:25.561Z,28.10
2023-03-05T00:58:54.443Z,27.33
2023-03-05T01:01:23.310Z,27.47
2023-03-05T01:03:52.338Z,27.43
2023-03-05T01:06:20.712Z,27.63
2023-03-05T01:08:50.382Z,27.73
2023-03-05T01:11:18.813Z,27.10
2023-03-05T01:13:47.426Z,27.90
2023-03-05T01:16:15.637Z,38.40
2023-03-05T01:18:44.197Z,28.50
2023-03-05T01:21:12.450Z,27.70
2023-03-05T01:23:40.626Z,28.90
2023-03-05T01:26:10.364Z,28.50
2023-03-05T01:28:38.816Z,28.10
2023-03-05T01:31:11.234Z,27.40
2023-03-05T01:33:40.254Z,28.80
2023-03-05T01:36:12.569Z,28.60
2023-03-05T01:38:41.022Z,28.33
2023-03-05T01:41:12.357Z,29.13
2023-03-05T01:43:41.580Z,28.23
2023-03-05T01:46:38.048Z,29.43
2023-03-05T01:49:17.965Z,29.23
2023-03-05T01:51:56.464Z,27.80
2023-03-05T01:54:31.511Z,28.20
2023-03-05T01:57:07.691Z,28.90
2023-03-05T01:59:37.628Z,28.87
2023-03-05T02:02:08.174Z,28.37
2023-03-05T02:04:42.574Z,28.73
2023-03-05T02:07:11.630Z,29.50
2023-03-05T02:09:41.036Z,29.37
2023-03-05T02:12:12.818Z,28.30
2023-03-05T02:14:43.646Z,28.03
2023-03-05T02:17:12.629Z,28.63
2023-03-05T02:19:55.767Z,28.53
2023-03-05T02:22:25.977Z,29.33
2023-03-05T02:24:54.328Z,28.53
2023-03-05T02:27:27.209Z,28.60
2023-03-05T02:29:56.026Z,29.53
2023-03-05T02:32:24.349Z,29.40
2023-03-05T02:34:52.802Z,30.03
2023-03-05T02:37:21.308Z,29.33
2023-03-05T02:39:50.874Z,29.30
2023-03-05T02:42:19.248Z,29.00
2023-03-05T02:44:47.555Z,28.63
2023-03-05T02:47:15.863Z,28.87
2023-03-05T02:49:45.179Z,27.83
2023-03-05T02:52:13.493Z,28.67
2023-03-05T02:54:42.463Z,29.10
2023-03-05T02:57:12.182Z,28.73
2023-03-05T02:59:40.473Z,29.90
2023-03-05T03:02:09.090Z,29.30
2023-03-05T03:04:37.382Z,30.23
2023-03-05T03:07:05.871Z,30.20
2023-03-05T03:09:35.188Z,29.33
2023-03-05T03:12:04.074Z,29.30
2023-03-05T03:14:39.185Z,29.83
2023-03-05T03:17:07.903Z,29.53
2023-03-05T03:19:37.013Z,31.47
2023-03-05T03:22:06.607Z,30.73
2023-03-05T03:24:35.738Z,29.93
2023-03-05T03:27:04.226Z,30.23
2023-03-05T03:29:34.195Z,29.93
2023-03-05T03:32:02.512Z,29.00
2023-03-05T03:34:30.806Z,29.63
2023-03-05T03:36:59.027Z,27.97
2023-03-05T03:39:27.254Z,28.40
2023-03-05T03:41:56.631Z,29.50
2023-03-05T03:44:25.152Z,29.13
2023-03-05T03:46:55.273Z,28.47
2023-03-05T03:49:25.208Z,28.27
2023-03-05T03:51:55.520Z,28.00
2023-03-05T03:54:23.922Z,29.33
2023-03-05T03:56:52.602Z,28.77
2023-03-05T03:59:21.069Z,30.73
2023-03-05T04:01:49.469Z,31.10
2023-03-05T04:04:19.338Z,30.43
2023-03-05T04:06:47.676Z,31.37
2023-03-05T04:09:15.914Z,28.50
2023-03-05T04:11:44.402Z,29.13
2023-03-05T04:14:13.033Z,28.63
2023-03-05T04:16:41.307Z,30.23
2023-03-05T04:19:09.551Z,29.37
2023-03-05T04:21:40.111Z,28.27
2023-03-05T04:24:09.676Z,27.57
2023-03-05T04:26:37.983Z,28.10
2023-03-05T04:29:06.181Z,28.07
2023-03-05T04:31:34.622Z,28.10
2023-03-05T04:34:03.031Z,28.43
2023-03-05T04:36:31.459Z,28.97
2023-03-05T04:39:01.052Z,28.70
2023-03-05T04:41:29.305Z,29.57
2023-03-05T04:43:57.566Z,29.73
2023-03-05T04:46:25.960Z,29.27
2023-03-05T04:48:54.535Z,29.80
2023-03-05T04:51:22.755Z,28.50
2023-03-05T04:53:51.117Z,28.67
2023-03-05T04:56:20.744Z,30.87
2023-03-05T04:58:49.005Z,28.17
2023-03-05T05:01:17.445Z,30.30
2023-03-05T05:03:45.806Z,29.90
2023-03-05T05:06:14.206Z,29.10
2023-03-05T05:08:43.390Z,30.27
2023-03-05T05:11:14.141Z,28.40
2023-03-05T05:13:43.797Z,29.13
2023-03-05T05:16:12.098Z,29.67
2023-03-05T05:18:40.402Z,30.00
2023-03-05T05:21:10.111Z,28.50
2023-03-05T05:23:38.917Z,30.40
2023-03-05T05:26:09.398Z,30.07
2023-03-05T05:28:38.376Z,30.80
2023-03-05T05:31:11.038Z,28.70
2023-03-05T05:33:39.402Z,30.00
2023-03-05T05:36:10.317Z,29.83
2023-03-05T05:38:38.982Z,29.27
2023-03-05T05:41:09.487Z,29.70
2023-03-05T05:43:38.680Z,29.37
2023-03-05T05:46:11.846Z,29.33
2023-03-05T05:48:40.217Z,30.03
2023-03-05T05:51:10.378Z,30.13
2023-03-05T05:53:38.875Z,30.00
2023-03-05T05:56:08.357Z,28.97
2023-03-05T05:58:37.180Z,30.13
2023-03-05T06:01:15.078Z,29.63
2023-03-05T06:03:43.380Z,28.87
2023-03-05T06:06:13.639Z,29.03
2023-03-05T06:08:42.229Z,30.17
2023-03-05T06:11:11.022Z,30.17
2023-03-05T06:13:39.678Z,31.33
2023-03-05T06:16:10.764Z,28.90
2023-03-05T06:18:40.449Z,29.93
2023-03-05T06:21:10.665Z,31.03
2023-03-05T06:23:38.971Z,31.13
2023-03-05T06:26:09.022Z,32.90
2023-03-05T06:28:37.508Z,33.53
2023-03-05T06:31:07.751Z,34.73
2023-03-05T06:33:36.857Z,36.00
2023-03-05T06:36:09.142Z,43.07
2023-03-05T06:38:38.133Z,41.03
2023-03-05T06:41:09.315Z,37.30
2023-03-05T06:43:39.174Z,32.43
2023-03-05T06:46:09.735Z,31.07
2023-03-05T06:48:38.365Z,29.57
2023-03-05T06:51:14.543Z,30.80
2023-03-05T06:53:43.152Z,28.43
2023-03-05T06:56:16.680Z,30.23
2023-03-05T06:58:45.801Z,28.67
2023-03-05T07:01:14.315Z,29.63
2023-03-05T07:03:44.205Z,29.70
2023-03-05T07:06:15.902Z,28.37
2023-03-05T07:08:44.787Z,29.23
2023-03-05T07:11:14.413Z,29.13
2023-03-05T07:13:43.500Z,32.20
2023-03-05T07:16:15.443Z,29.97
2023-03-05T07:18:45.707Z,29.83
2023-03-05T07:21:18.584Z,29.50
2023-03-05T07:23:46.898Z,30.03
2023-03-05T07:26:16.176Z,30.33
2023-03-05T07:28:44.937Z,30.77
2023-03-05T07:31:15.249Z,31.30
2023-03-05T07:33:43.506Z,31.77
2023-03-05T07:36:13.276Z,34.63
2023-03-05T07:38:43.405Z,33.83
2023-03-05T07:41:13.614Z,30.60
2023-03-05T07:43:42.124Z,30.17
2023-03-05T07:46:12.580Z,29.03
2023-03-05T07:48:40.856Z,30.47
2023-03-05T07:51:11.808Z,29.13
2023-03-05T07:53:40.147Z,28.80
2023-03-05T07:56:10.482Z,29.07
2023-03-05T07:58:38.778Z,27.70
2023-03-05T08:01:13.920Z,29.17
2023-03-05T08:03:42.731Z,29.23
2023-03-05T08:06:12.903Z,29.50
2023-03-05T08:08:41.292Z,27.40
2023-03-05T08:11:13.699Z,27.07
2023-03-05T08:13:42.617Z,28.93
2023-03-05T08:16:14.705Z,28.07
2023-03-05T08:18:44.093Z,28.67
2023-03-05T08:21:18.201Z,28.27
2023-03-05T08:23:46.959Z,28.10
2023-03-05T08:26:19.093Z,27.57
2023-03-05T08:28:48.266Z,27.70
2023-03-05T08:31:18.330Z,27.47
2023-03-05T08:33:46.962Z,29.07
2023-03-05T08:36:15.515Z,32.43
2023-03-05T08:38:44.793Z,30.40
2023-03-05T08:41:16.112Z,28.73
2023-03-05T08:43:45.918Z,30.70
2023-03-05T08:46:15.370Z,29.97
2023-03-05T08:48:43.866Z,29.63
2023-03-05T08:51:15.370Z,30.53
2023-03-05T08:53:44.966Z,30.23
2023-03-05T08:56:14.074Z,28.80
2023-03-05T08:58:43.495Z,27.40
2023-03-05T09:01:13.483Z,27.40
2023-03-05T09:03:42.891Z,27.97
2023-03-05T09:06:13.455Z,26.67
2023-03-05T09:08:41.968Z,28.20
2023-03-05T09:11:13.058Z,27.43
2023-03-05T09:13:41.978Z,29.37
2023-03-05T09:16:17.431Z,28.77
2023-03-05T09:18:46.519Z,26.07
2023-03-05T09:21:16.545Z,28.37
2023-03-05T09:23:47.237Z,27.53
2023-03-05T09:26:19.258Z,26.40
2023-03-05T09:28:48.057Z,28.13
2023-03-05T09:31:18.570Z,28.67
2023-03-05T09:33:48.326Z,29.80
2023-03-05T09:36:23.032Z,30.40
2023-03-05T09:38:51.396Z,26.73
2023-03-05T09:41:30.305Z,26.73
2023-03-05T09:44:08.822Z,26.77
2023-03-05T09:46:49.299Z,26.13
2023-03-05T09:49:22.925Z,26.97
2023-03-05T09:51:56.867Z,25.87
2023-03-05T09:54:35.551Z,27.17
2023-03-05T09:57:06.627Z,26.40
2023-03-05T09:59:44.003Z,26.30
2023-03-05T10:02:20.508Z,27.30
2023-03-05T10:04:54.205Z,26.37
2023-03-05T10:07:27.092Z,26.10
2023-03-05T10:09:58.998Z,26.10
2023-03-05T10:12:35.500Z,23.73
2023-03-05T10:15:03.931Z,24.97
2023-03-05T10:17:59.899Z,24.73
2023-03-05T10:20:49.731Z,27.65
2023-03-05T10:23:29.322Z,24.53
2023-03-05T10:26:15.058Z,24.03
2023-03-05T10:28:49.258Z,25.30
2023-03-05T10:31:31.676Z,23.37
2023-03-05T10:34:16.236Z,23.90
2023-03-05T10:36:57.156Z,22.47
2023-03-05T10:39:47.944Z,23.43
2023-03-05T10:42:26.274Z,22.13
2023-03-05T10:44:57.361Z,22.10
2023-03-05T10:47:29.569Z,24.30
2023-03-05T10:50:00.569Z,23.43
2023-03-05T10:52:34.398Z,20.77
2023-03-05T10:55:02.867Z,21.40
2023-03-05T10:57:33.345Z,22.00
2023-03-05T11:00:14.447Z,21.03
2023-03-05T11:02:56.497Z,20.17
2023-03-05T11:05:45.822Z,38.20
2023-03-05T11:08:30.848Z,22.43
2023-03-05T11:11:12.826Z,21.23
2023-03-05T11:13:56.281Z,23.73
2023-03-05T11:16:27.204Z,24.00
2023-03-05T11:19:20.651Z,21.23
2023-03-05T11:22:08.425Z,22.10
2023-03-05T11:24:36.758Z,21.17
2023-03-05T11:27:24.715Z,23.03
2023-03-05T11:29:53.573Z,22.90
2023-03-05T11:32:24.438Z,21.37
2023-03-05T11:34:53.806Z,22.90
2023-03-05T11:37:28.799Z,23.33
2023-03-05T11:40:22.602Z,22.43
2023-03-05T11:42:56.860Z,23.43
2023-03-05T11:45:27.325Z,22.27
2023-03-05T11:47:58.742Z,23.93
2023-03-05T11:50:30.514Z,22.73
2023-03-05T11:53:04.852Z,22.70
2023-03-05T11:55:38.796Z,21.93
2023-03-05T11:58:23.874Z,22.80
2023-03-05T12:00:52.808Z,21.63
2023-03-05T12:03:23.709Z,21.70
2023-03-05T12:05:55.186Z,23.33
2023-03-05T12:08:30.345Z,23.30
2023-03-05T12:11:00.548Z,22.47
2023-03-05T12:13:35.716Z,20.40
2023-03-05T12:16:18.056Z,22.80
2023-03-05T12:18:55.001Z,22.47
2023-03-05T12:21:32.879Z,23.90
2023-03-05T12:24:04.956Z,23.30
2023-03-05T12:26:57.846Z,21.90
2023-03-05T12:29:31.981Z,22.93
2023-03-05T12:32:01.079Z,22.07
2023-03-05T12:34:48.852Z,22.47
2023-03-05T12:37:46.880Z,22.33
2023-03-05T12:40:24.437Z,22.00
2023-03-05T12:42:58.348Z,21.70
2023-03-05T12:45:41.477Z,23.03
2023-03-05T12:48:35.644Z,22.93
2023-03-05T12:51:04.087Z,21.80
2023-03-05T12:53:32.435Z,21.70
2023-03-05T12:56:19.792Z,21.67
2023-03-05T12:58:51.123Z,22.60
2023-03-05T13:01:33.012Z,21.57
2023-03-05T13:04:09.746Z,24.03
2023-03-05T13:06:42.168Z,22.60
2023-03-05T13:09:18.510Z,23.33
2023-03-05T13:11:51.345Z,24.30
2023-03-05T13:14:38.702Z,22.27
2023-03-05T13:17:29.480Z,22.33
2023-03-05T13:19:58.096Z,22.77
2023-03-05T13:22:26.753Z,23.33
2023-03-05T13:25:15.182Z,23.17
2023-03-05T13:27:45.084Z,21.80
2023-03-05T13:30:22.913Z,22.10
2023-03-05T13:32:53.332Z,23.37
2023-03-05T13:35:22.609Z,22.47
2023-03-05T13:37:51.208Z,22.23
2023-03-05T13:40:23.089Z,21.97
2023-03-05T13:42:54.552Z,22.80
2023-03-05T13:45:26.965Z,22.37
2023-03-05T13:47:57.558Z,22.53
2023-03-05T13:50:31.105Z,22.17
2023-03-05T13:53:19.317Z,22.57
2023-03-05T13:55:48.452Z,21.90
2023-03-05T13:58:47.449Z,22.93
2023-03-05T14:01:26.808Z,21.80
2023-03-05T14:03:57.390Z,22.17
2023-03-05T14:06:29.286Z,21.40
2023-03-05T14:09:05.638Z,21.43
2023-03-05T14:11:35.044Z,21.07
2023-03-05T14:14:21.108Z,21.10
2023-03-05T14:16:49.638Z,19.60
2023-03-05T14:19:37.401Z,21.30
2023-03-05T14:22:07.527Z,20.90
2023-03-05T14:24:36.093Z,21.53
2023-03-05T14:27:08.735Z,21.23
2023-03-05T14:29:38.984Z,20.53
2023-03-05T14:32:09.066Z,20.90
2023-03-05T14:34:40.413Z,20.87
2023-03-05T14:37:20.482Z,20.87
2023-03-05T14:39:53.947Z,20.17
2023-03-05T14:42:31.601Z,20.00
2023-03-05T14:45:03.572Z,19.53
2023-03-05T14:47:31.923Z,19.37
2023-03-05T14:50:00.240Z,19.43
2023-03-05T14:52:28.569Z,21.53
2023-03-05T14:54:57.204Z,17.60
2023-03-05T14:57:28.540Z,15.90
2023-03-05T14:59:56.804Z,16.37
2023-03-05T15:02:27.825Z,16.57
2023-03-05T15:04:56.217Z,16.70
2023-03-05T15:07:30.146Z,15.83
2023-03-05T15:09:59.815Z,15.57
2023-03-05T15:12:28.492Z,15.63
2023-03-05T15:14:57.681Z,15.00
2023-03-05T15:17:33.377Z,14.57
2023-03-05T15:20:01.851Z,12.73
2023-03-05T15:22:30.594Z,12.67
2023-03-05T15:24:58.957Z,13.87
2023-03-05T15:27:27.557Z,20.07
2023-03-05T15:29:55.804Z,18.37
2023-03-05T15:32:24.234Z,15.20
2023-03-05T15:34:54.499Z,22.80
2023-03-05T15:37:22.650Z,23.00
2023-03-05T15:39:50.989Z,20.40
2023-03-05T15:42:20.117Z,20.30
2023-03-05T15:44:48.661Z,22.77
2023-03-05T15:47:16.965Z,19.37
2023-03-05T15:49:45.583Z,18.00
2023-03-05T15:52:15.834Z,11.03
2023-03-05T15:54:44.417Z,11.87
2023-03-05T15:57:14.316Z,11.60
2023-03-05T15:59:42.717Z,10.47
2023-03-05T16:02:11.244Z,11.00
2023-03-05T16:04:39.479Z,12.17
2023-03-05T16:07:09.409Z,11.60
2023-03-05T16:09:42.998Z,12.03
2023-03-05T16:12:17.994Z,13.43
2023-03-05T16:14:47.207Z,12.93
2023-03-05T16:17:16.578Z,20.30
2023-03-05T16:19:47.650Z,21.20
2023-03-05T16:22:16.001Z,15.13
2023-03-05T16:24:45.940Z,14.97
2023-03-05T16:27:14.167Z,22.90
2023-03-05T16:29:43.198Z,18.83
2023-03-05T16:32:11.795Z,17.27
2023-03-05T16:34:40.263Z,10.13
2023-03-05T16:37:08.644Z,11.27
2023-03-05T16:39:37.158Z,9.27
2023-03-05T16:42:08.478Z,11.00
2023-03-05T16:44:36.824Z,10.57
2023-03-05T16:47:07.391Z,10.00
2023-03-05T16:49:36.844Z,10.97
2023-03-05T16:52:17.723Z,11.07
2023-03-05T16:54:47.261Z,15.73
2023-03-05T16:57:16.936Z,12.70
2023-03-05T16:59:45.815Z,12.90
2023-03-05T17:02:15.476Z,14.30
2023-03-05T17:04:43.998Z,22.07
2023-03-05T17:07:12.418Z,21.37
2023-03-05T17:09:41.017Z,22.60
2023-03-05T17:12:09.635Z,14.87
2023-03-05T17:14:39.958Z,16.90
2023-03-05T17:17:08.769Z,16.57
2023-03-05T17:19:37.143Z,25.70
2023-03-05T17:22:05.879Z,16.97
2023-03-05T17:24:34.490Z,14.70
2023-03-05T17:27:02.957Z,13.23
2023-03-05T17:29:31.607Z,14.27
2023-03-05T17:32:01.336Z,13.40
2023-03-05T17:34:36.065Z,9.67
2023-03-05T17:37:06.505Z,10.60
2023-03-05T17:39:35.010Z,11.70
2023-03-05T17:42:03.340Z,17.03
2023-03-05T17:44:31.889Z,14.23
2023-03-05T17:47:01.733Z,12.50
2023-03-05T17:49:30.020Z,19.13
2023-03-05T17:51:58.690Z,21.93
2023-03-05T17:54:27.433Z,21.90
2023-03-05T17:56:56.329Z,15.10
2023-03-05T17:59:25.607Z,13.73
2023-03-05T18:01:54.188Z,10.87
2023-03-05T18:04:23.890Z,8.93
2023-03-05T18:06:52.358Z,10.27
2023-03-05T18:09:20.569Z,10.33
2023-03-05T18:11:48.866Z,10.50
2023-03-05T18:14:17.264Z,12.20
2023-03-05T18:16:45.889Z,15.23
2023-03-05T18:19:14.160Z,20.43
2023-03-05T18:21:44.216Z,18.33
2023-03-05T18:24:12.786Z,17.43
2023-03-05T18:26:41.160Z,16.40
2023-03-05T18:29:09.300Z,17.37
2023-03-05T18:31:37.553Z,19.17
2023-03-05T18:34:05.828Z,18.43
2023-03-05T18:36:34.348Z,16.80
2023-03-05T18:39:05.515Z,15.53
2023-03-05T18:41:34.175Z,15.47
2023-03-05T18:44:04.462Z,17.70
2023-03-05T18:46:33.490Z,15.63
2023-03-05T18:49:01.736Z,15.70
2023-03-05T18:51:30.573Z,15.80
2023-03-05T18:53:59.334Z,17.60
2023-03-05T18:56:29.015Z,15.50
2023-03-05T18:58:58.889Z,15.50
2023-03-05T19:01:27.547Z,15.83
2023-03-05T19:03:56.153Z,15.23
2023-03-05T19:06:24.748Z,15.97
2023-03-05T19:08:57.301Z,15.67
2023-03-05T19:11:25.933Z,16.90
2023-03-05T19:13:57.051Z,15.87
2023-03-05T19:16:29.391Z,15.30
2023-03-05T19:19:03.929Z,16.37
2023-03-05T19:21:33.404Z,15.53
2023-03-05T19:24:01.935Z,15.87
2023-03-05T19:26:30.866Z,15.90
2023-03-05T19:29:02.289Z,15.97
2023-03-05T19:31:30.928Z,25.13
2023-03-05T19:33:59.688Z,15.37
2023-03-05T19:36:31.189Z,17.60
2023-03-05T19:39:00.114Z,16.40
2023-03-05T19:41:29.614Z,15.83
2023-03-05T19:43:57.949Z,16.13
2023-03-05T19:46:27.889Z,16.20
2023-03-05T19:48:56.266Z,15.73
2023-03-05T19:51:26.372Z,15.83
2023-03-05T19:53:54.768Z,15.80
2023-03-05T19:56:23.437Z,15.87
2023-03-05T19:58:52.064Z,14.93
2023-03-05T20:01:22.376Z,15.77
2023-03-05T20:03:53.778Z,15.13
2023-03-05T20:06:22.984Z,15.27
2023-03-05T20:08:51.894Z,15.50
2023-03-05T20:11:21.422Z,15.17
2023-03-05T20:13:50.840Z,15.97
2023-03-05T20:16:21.441Z,16.70
2023-03-05T20:18:52.961Z,15.00
2023-03-05T20:21:23.175Z,15.23
2023-03-05T20:23:51.756Z,15.87
2023-03-05T20:26:20.315Z,14.83
2023-03-05T20:28:48.694Z,16.00
2023-03-05T20:31:20.054Z,16.47
2023-03-05T20:33:48.623Z,14.20
2023-03-05T20:36:18.538Z,15.20
2023-03-05T20:38:47.149Z,14.63
2023-03-05T20:41:17.776Z,18.97
2023-03-05T20:43:47.771Z,18.10
2023-03-05T20:46:18.015Z,17.50
2023-03-05T20:48:48.040Z,16.17
2023-03-05T20:51:24.325Z,18.13
2023-03-05T20:53:56.686Z,17.33
2023-03-05T20:56:26.909Z,18.90
2023-03-05T20:58:55.271Z,20.27
2023-03-05T21:01:23.772Z,18.73
2023-03-05T21:03:53.643Z,20.63
2023-03-05T21:06:23.490Z,22.47
2023-03-05T21:08:51.759Z,21.23
2023-03-05T21:11:20.523Z,20.53
2023-03-05T21:13:49.144Z,19.83
2023-03-05T21:16:20.080Z,19.03
2023-03-05T21:18:48.329Z,19.70
2023-03-05T21:21:16.595Z,19.70
2023-03-05T21:23:47.120Z,19.20
2023-03-05T21:26:15.715Z,18.47
2023-03-05T21:28:44.165Z,19.07
2023-03-05T21:31:16.567Z,18.77
2023-03-05T21:33:45.144Z,19.33
2023-03-05T21:36:13.745Z,19.97
2023-03-05T21:38:41.933Z,19.17
2023-03-05T21:41:11.976Z,18.47
2023-03-05T21:43:40.328Z,18.07
2023-03-05T21:46:09.441Z,18.43
2023-03-05T21:48:38.173Z,17.73
2023-03-05T21:51:08.496Z,17.33
2023-03-05T21:53:36.903Z,17.23
2023-03-05T21:56:21.014Z,16.07
2023-03-05T21:58:51.710Z,16.43
2023-03-05T22:01:21.189Z,16.47
2023-03-05T22:03:51.086Z,16.87
2023-03-05T22:06:20.651Z,16.87
2023-03-05T22:08:49.336Z,17.03
2023-03-05T22:11:20.815Z,15.90
2023-03-05T22:13:50.437Z,17.13
2023-03-05T22:16:24.019Z,16.67
2023-03-05T22:18:52.832Z,14.87
2023-03-05T22:21:25.753Z,15.17
2023-03-05T22:23:54.308Z,16.10
2023-03-05T22:26:22.593Z,17.53
2023-03-05T22:28:52.836Z,16.97
2023-03-05T22:31:22.225Z,16.97
2023-03-05T22:33:50.967Z,16.07
2023-03-05T22:36:19.324Z,15.37
2023-03-05T22:38:47.733Z,15.80
2023-03-05T22:41:19.928Z,16.23
2023-03-05T22:43:49.228Z,16.87
2023-03-05T22:46:20.833Z,18.13
2023-03-05T22:48:49.437Z,18.50
2023-03-05T22:51:19.031Z,19.13
2023-03-05T22:53:47.645Z,19.47
2023-03-05T22:56:17.519Z,20.07
2023-03-05T22:58:45.986Z,20.13
2023-03-05T23:01:15.684Z,20.40
2023-03-05T23:03:45.601Z,20.87
2023-03-05T23:06:14.205Z,21.73
2023-03-05T23:08:42.888Z,21.50
2023-03-05T23:11:13.455Z,22.23
2023-03-05T23:13:42.505Z,22.40
2023-03-05T23:16:10.814Z,23.07
2023-03-05T23:18:39.240Z,21.40
2023-03-05T23:21:08.862Z,23.07
2023-03-05T23:23:37.187Z,24.40
2023-03-05T23:26:05.669Z,23.77
2023-03-05T23:28:34.019Z,23.40
2023-03-05T23:31:02.661Z,22.83
2023-03-05T23:33:30.959Z,23.60
2023-03-05T23:36:00.870Z,22.93
2023-03-05T23:38:31.365Z,22.50
2023-03-05T23:41:03.337Z,22.97
2023-03-05T23:43:31.892Z,23.77
2023-03-05T23:46:01.596Z,22.47
2023-03-05T23:48:31.252Z,22.10
2023-03-05T23:50:59.626Z,22.53
2023-03-05T23:53:31.260Z,22.63
2023-03-05T23:56:00.102Z,22.30
2023-03-05T23:58:28.641Z,22.93
